Time;durP1;ratioP1;P1;durP2;ratioP2;P2;SDS_P1;SDS_P2;PMS_P1;PMS_P2;Temp;Humidity;BMP_temperature;BMP_pressure;BME280_temperature;BME280_humidity;BME280_pressure;Samples;Min_cycle;Max_cycle;Signal;HPM_P1;HPM_P2
2024/04/12 00:01:47;;;;;;;6.68;6.00;;;15.10;99.90;;;;;;5541759;25;20096;-38
2024/04/12 00:04:19;;;;;;;6.57;5.90;;;15.00;99.90;;;;;;5519499;25;20005;-37
2024/04/12 00:06:49;;;;;;;5.40;4.90;;;15.00;99.90;;;;;;5542438;25;20532;-34
2024/04/12 00:09:17;;;;;;;7.85;5.85;;;15.10;99.90;;;;;;5522209;25;19993;-36
2024/04/12 00:11:44;;;;;;;7.38;5.63;;;15.10;99.90;;;;;;5543426;25;20007;-33
2024/04/12 00:14:10;;;;;;;6.30;5.70;;;15.10;99.90;;;;;;5527301;25;20009;-35
2024/04/12 00:16:38;;;;;;;6.28;5.65;;;15.10;99.90;;;;;;5539180;25;19996;-34
2024/04/12 00:19:46;;;;;;;7.15;6.45;;;15.10;99.90;;;;;;5531529;25;20682;-33
2024/04/12 00:21:55;;;;;;;7.72;6.82;;;15.10;99.90;;;;;;5528708;25;20331;-36
2024/04/12 00:24:25;;;;;;;6.93;6.22;;;15.00;99.90;;;;;;5531316;25;20004;-37
2024/04/12 00:26:53;;;;;;;6.75;6.15;;;15.00;99.90;;;;;;5540072;25;20012;-34
2024/04/12 00:29:30;;;;;;;7.18;6.47;;;15.00;99.90;;;;;;5535185;25;20354;-33
2024/04/12 00:32:03;;;;;;;7.88;7.07;;;15.00;99.90;;;;;;5540348;25;20011;-37
2024/04/12 00:34:38;;;;;;;7.28;6.50;;;15.00;99.90;;;;;;5539870;25;20001;-37
2024/04/12 00:37:07;;;;;;;9.43;7.93;;;15.00;99.90;;;;;;5542496;25;20500;-37
2024/04/12 00:39:39;;;;;;;8.65;7.75;;;15.00;99.90;;;;;;5538924;25;20012;-37
2024/04/12 00:42:09;;;;;;;8.68;7.80;;;14.90;99.90;;;;;;5536216;25;19993;-35
2024/04/12 00:44:38;;;;;;;7.50;6.80;;;14.90;99.90;;;;;;5539594;25;20017;-33
2024/04/12 00:47:07;;;;;;;8.38;7.57;;;14.90;99.90;;;;;;5533172;25;20443;-36
2024/04/12 00:49:37;;;;;;;7.00;6.30;;;14.90;99.90;;;;;;5542601;25;20029;-36
2024/04/12 00:52:04;;;;;;;8.35;7.30;;;14.90;99.90;;;;;;5530596;25;20001;-36
2024/04/12 00:54:32;;;;;;;9.15;8.00;;;14.90;99.90;;;;;;5545786;25;19996;-37
2024/04/12 00:56:59;;;;;;;10.30;9.30;;;14.90;99.90;;;;;;5514859;25;20001;-37
2024/04/12 00:59:24;;;;;;;8.82;7.95;;;14.90;99.90;;;;;;5513835;25;20001;-38
2024/04/12 01:01:50;;;;;;;9.05;8.15;;;14.90;99.90;;;;;;5531193;25;20066;-37
2024/04/12 01:04:20;;;;;;;9.80;8.82;;;15.00;99.90;;;;;;5510830;25;20001;-34
2024/04/12 01:06:46;;;;;;;9.50;8.57;;;15.00;99.90;;;;;;5522162;25;19993;-34
2024/04/12 01:09:12;;;;;;;10.23;9.10;;;15.00;99.90;;;;;;5548440;25;20000;-37
2024/04/12 01:11:40;;;;;;;10.48;9.25;;;15.00;99.90;;;;;;5524176;25;20016;-35
2024/04/12 01:14:08;;;;;;;9.32;8.43;;;15.00;99.90;;;;;;5547254;25;20076;-37
2024/04/12 01:16:35;;;;;;;12.13;9.48;;;15.00;99.90;;;;;;5527888;25;20348;-37
2024/04/12 01:19:03;;;;;;;10.60;9.60;;;14.90;99.90;;;;;;5549633;25;20440;-37
2024/04/12 01:21:31;;;;;;;9.40;8.50;;;14.90;99.90;;;;;;5528538;25;20874;-35
2024/04/12 01:23:57;;;;;;;10.40;9.30;;;14.90;99.90;;;;;;5546245;25;20029;-37
2024/04/12 01:26:23;;;;;;;12.00;10.73;;;15.00;99.90;;;;;;5534966;25;19998;-36
2024/04/12 01:29:09;;;;;;;13.10;11.70;;;14.90;99.90;;;;;;5540385;25;19989;-36
2024/04/12 01:31:38;;;;;;;12.82;11.48;;;14.90;99.90;;;;;;5534285;25;20876;-36
2024/04/12 01:34:12;;;;;;;13.50;12.07;;;14.90;99.90;;;;;;5542086;25;20012;-36
2024/04/12 01:36:38;;;;;;;12.82;11.27;;;14.90;99.90;;;;;;5535842;25;20008;-37
2024/04/12 01:39:11;;;;;;;14.30;12.80;;;14.90;99.90;;;;;;5539898;25;19993;-34
2024/04/12 01:41:38;;;;;;;13.40;12.05;;;14.90;99.90;;;;;;5538560;25;19997;-36
2024/04/12 01:44:06;;;;;;;15.90;14.30;;;14.90;99.90;;;;;;5537057;25;19996;-32
2024/04/12 01:46:34;;;;;;;15.63;14.07;;;14.80;99.90;;;;;;5543422;25;20008;-36
2024/04/12 01:49:01;;;;;;;16.23;14.05;;;14.90;99.90;;;;;;5532630;25;19997;-33
2024/04/12 01:51:34;;;;;;;13.18;11.85;;;14.80;99.90;;;;;;5546216;25;19997;-36
2024/04/12 01:54:04;;;;;;;13.48;12.13;;;14.80;99.90;;;;;;5510256;25;19997;-35
2024/04/12 01:56:31;;;;;;;13.50;12.20;;;14.80;99.90;;;;;;5543548;25;19997;-35
2024/04/12 01:58:56;;;;;;;13.00;11.55;;;14.80;99.90;;;;;;5525770;25;19997;-36
2024/04/12 02:01:27;;;;;;;13.18;11.77;;;14.90;99.90;;;;;;5543607;25;20012;-37
2024/04/12 02:03:53;;;;;;;12.75;11.45;;;14.90;99.90;;;;;;5525352;25;20520;-35
2024/04/12 02:06:22;;;;;;;12.40;11.10;;;14.90;99.90;;;;;;5546942;25;20008;-36
2024/04/12 02:08:48;;;;;;;12.45;11.15;;;14.90;99.90;;;;;;5532339;25;20000;-34
2024/04/12 02:11:22;;;;;;;11.93;10.80;;;14.90;99.90;;;;;;5511683;26;20002;-35
2024/04/12 02:13:48;;;;;;;11.50;10.32;;;14.90;99.90;;;;;;5535816;25;20011;-36
2024/04/12 02:16:14;;;;;;;11.90;10.40;;;14.80;99.90;;;;;;5512466;26;19998;-34
2024/04/12 02:18:41;;;;;;;12.75;11.50;;;14.80;99.90;;;;;;5534021;25;19997;-36
2024/04/12 02:21:06;;;;;;;13.60;12.18;;;14.90;99.90;;;;;;5475697;26;20013;-38
2024/04/12 02:23:33;;;;;;;15.98;14.27;;;14.80;99.90;;;;;;5518894;25;20004;-37
2024/04/12 02:25:59;;;;;;;16.17;14.48;;;14.80;99.90;;;;;;5516139;25;20012;-33
2024/04/12 02:28:26;;;;;;;17.17;15.02;;;14.90;99.90;;;;;;5525843;25;20048;-37
2024/04/12 02:30:54;;;;;;;15.35;13.85;;;14.80;99.90;;;;;;5520063;25;20005;-34
2024/04/12 02:33:32;;;;;;;13.50;12.10;;;14.80;99.90;;;;;;5521877;25;20092;-34
2024/04/12 02:36:12;;;;;;;12.85;11.52;;;14.80;99.90;;;;;;5522350;25;19998;-37
2024/04/12 02:38:39;;;;;;;12.07;10.65;;;14.80;99.90;;;;;;5522696;25;20007;-36
2024/04/12 02:41:05;;;;;;;10.23;9.23;;;14.70;99.90;;;;;;5523460;25;20001;-35
2024/04/12 02:43:32;;;;;;;10.18;9.18;;;14.70;99.90;;;;;;5518859;25;20001;-37
2024/04/12 02:45:58;;;;;;;10.23;9.23;;;14.70;99.90;;;;;;5526579;25;20048;-36
2024/04/12 02:48:24;;;;;;;9.32;8.43;;;14.70;99.90;;;;;;5513521;25;20071;-37
2024/04/12 02:50:55;;;;;;;10.18;9.13;;;14.80;99.90;;;;;;5531468;25;20490;-36
2024/04/12 02:53:21;;;;;;;10.10;9.00;;;14.70;99.90;;;;;;5510147;25;19993;-37
2024/04/12 02:56:00;;;;;;;9.68;8.60;;;14.70;99.90;;;;;;5529068;25;20008;-38
2024/04/12 02:58:29;;;;;;;9.25;8.35;;;14.80;99.90;;;;;;5539357;25;20011;-37
2024/04/12 03:00:59;;;;;;;9.05;8.20;;;14.70;99.90;;;;;;5524665;25;20100;-36
2024/04/12 03:03:26;;;;;;;9.30;8.40;;;14.70;99.90;;;;;;5543223;25;20011;-34
2024/04/12 03:05:58;;;;;;;8.95;8.05;;;14.70;99.90;;;;;;5522076;25;20016;-36
2024/04/12 03:08:23;;;;;;;9.68;8.63;;;14.70;99.90;;;;;;5509976;26;20038;-37
2024/04/12 03:10:49;;;;;;;8.32;7.50;;;14.70;99.90;;;;;;5534648;25;19997;-36
2024/04/12 03:13:14;;;;;;;9.65;8.68;;;14.70;99.90;;;;;;5510671;26;19989;-37
2024/04/12 03:15:40;;;;;;;11.15;10.05;;;14.70;99.90;;;;;;5534398;25;19992;-36
2024/04/12 03:18:07;;;;;;;11.20;10.05;;;14.70;99.90;;;;;;5510979;26;20000;-33
2024/04/12 03:20:33;;;;;;;12.00;10.80;;;14.70;99.90;;;;;;5529796;25;20008;-37
2024/04/12 03:22:58;;;;;;;11.43;10.30;;;14.70;99.90;;;;;;5513502;25;19993;-33
2024/04/12 03:25:24;;;;;;;13.77;12.30;;;14.70;99.90;;;;;;5525654;25;19989;-37
2024/04/12 03:27:51;;;;;;;12.52;11.32;;;14.70;99.90;;;;;;5518135;25;20540;-36
2024/04/12 03:30:17;;;;;;;11.68;10.48;;;14.70;99.90;;;;;;5521695;25;20036;-35
2024/04/12 03:32:46;;;;;;;12.52;11.23;;;14.70;99.90;;;;;;5523086;25;19990;-37
2024/04/12 03:35:20;;;;;;;11.40;9.90;;;14.70;99.90;;;;;;5516714;25;20008;-36
2024/04/12 03:40:32;;;;;;;10.35;9.30;;;14.70;99.90;;;;;;5520798;25;20384;-37
2024/04/12 03:43:02;;;;;;;8.43;7.63;;;14.70;99.90;;;;;;5524672;25;19997;-38
2024/04/12 03:45:35;;;;;;;8.88;7.97;;;14.70;99.90;;;;;;5516229;25;20322;-38
2024/04/12 03:48:04;;;;;;;8.25;7.50;;;14.70;99.90;;;;;;5524550;25;20005;-35
2024/04/12 03:50:30;;;;;;;9.07;8.18;;;14.70;99.90;;;;;;5510336;25;19993;-38
2024/04/12 03:53:08;;;;;;;8.25;6.93;;;14.70;99.90;;;;;;5527618;25;19997;-37
2024/04/12 03:55:33;;;;;;;7.35;6.65;;;14.70;99.90;;;;;;5508716;25;20001;-36
2024/04/12 03:58:02;;;;;;;7.47;6.78;;;14.70;99.90;;;;;;5518559;25;20699;-35
2024/04/12 04:00:28;;;;;;;7.57;6.32;;;14.70;99.90;;;;;;5510237;25;20001;-35
2024/04/12 04:02:53;;;;;;;6.00;5.50;;;14.70;99.90;;;;;;5528823;25;20776;-36
2024/04/12 04:05:25;;;;;;;6.35;5.75;;;14.70;99.90;;;;;;5511552;25;20070;-37
2024/04/12 04:07:51;;;;;;;6.18;5.57;;;14.70;99.90;;;;;;5527549;25;20577;-37
2024/04/12 04:10:21;;;;;;;6.78;6.13;;;14.70;99.90;;;;;;5551438;25;20001;-38
2024/04/12 04:12:49;;;;;;;5.95;5.45;;;14.70;99.90;;;;;;5528251;25;20001;-37
2024/04/12 04:15:18;;;;;;;5.45;4.95;;;14.70;99.90;;;;;;5551583;25;19997;-36
2024/04/12 04:17:49;;;;;;;6.60;5.65;;;14.70;99.90;;;;;;5526241;25;20006;-33
2024/04/12 04:20:17;;;;;;;6.78;6.18;;;14.70;99.90;;;;;;5551448;25;20011;-37
2024/04/12 04:22:49;;;;;;;6.97;6.28;;;14.70;99.90;;;;;;5527934;25;19998;-34
2024/04/12 04:25:19;;;;;;;6.82;6.22;;;14.70;99.90;;;;;;5550605;25;20012;-37
2024/04/12 04:27:45;;;;;;;7.18;6.47;;;14.70;99.90;;;;;;5531658;25;20042;-35
2024/04/12 04:30:16;;;;;;;6.15;5.65;;;14.70;99.90;;;;;;5546398;25;20068;-36
2024/04/12 04:32:43;;;;;;;5.60;5.10;;;14.70;99.90;;;;;;5534140;25;20001;-36
2024/04/12 04:35:09;;;;;;;6.65;6.05;;;14.70;99.90;;;;;;5544094;25;20004;-37
2024/04/12 04:37:37;;;;;;;7.30;6.60;;;14.70;99.90;;;;;;5538827;25;19997;-33
2024/04/12 04:40:20;;;;;;;7.28;6.57;;;14.70;99.90;;;;;;5538333;25;20011;-37
2024/04/12 04:42:45;;;;;;;6.10;5.32;;;14.70;99.90;;;;;;5538703;25;19997;-36
2024/04/12 04:45:18;;;;;;;7.13;6.45;;;14.70;99.90;;;;;;5532994;25;20037;-35
2024/04/12 04:47:44;;;;;;;7.40;6.70;;;14.70;99.90;;;;;;5536599;25;20001;-33
2024/04/12 04:50:13;;;;;;;8.45;7.55;;;14.80;99.90;;;;;;5530890;25;20012;-36
2024/04/12 04:52:39;;;;;;;8.15;7.35;;;14.80;99.90;;;;;;5540566;25;20399;-35
2024/04/12 04:55:07;;;;;;;7.80;7.05;;;14.70;99.90;;;;;;5527505;25;20049;-34
2024/04/12 04:57:35;;;;;;;7.25;6.38;;;14.70;99.90;;;;;;5531249;25;19993;-32
2024/04/12 05:00:08;;;;;;;7.28;6.60;;;14.70;99.90;;;;;;5533164;25;20013;-37
2024/04/12 05:02:36;;;;;;;8.65;7.75;;;14.70;99.90;;;;;;5515364;25;19998;-37
2024/04/12 05:05:05;;;;;;;7.32;6.63;;;14.70;99.90;;;;;;5534032;25;20098;-35
2024/04/12 05:07:34;;;;;;;7.22;6.53;;;14.70;99.90;;;;;;5514242;25;19997;-35
2024/04/12 05:10:14;;;;;;;7.70;6.97;;;14.70;99.90;;;;;;5526704;25;20352;-37
2024/04/12 05:12:42;;;;;;;7.50;6.75;;;14.70;99.90;;;;;;5513071;25;19997;-33
2024/04/12 05:15:30;;;;;;;7.40;6.70;;;14.70;99.90;;;;;;5534116;25;20510;-35
2024/04/12 05:18:02;;;;;;;7.97;7.18;;;14.70;99.90;;;;;;5514989;25;20061;-36
2024/04/12 05:20:38;;;;;;;7.25;6.55;;;14.70;99.90;;;;;;5534209;25;20001;-35
2024/04/12 05:23:15;;;;;;;7.10;5.70;;;14.80;99.90;;;;;;5514828;25;20009;-37
2024/04/12 05:25:41;;;;;;;6.07;5.57;;;14.80;99.90;;;;;;5528942;25;20619;-35
2024/04/12 05:28:07;;;;;;;7.60;6.90;;;14.80;99.90;;;;;;5512147;25;20012;-35
2024/04/12 05:30:36;;;;;;;6.00;5.50;;;14.80;99.90;;;;;;5534833;25;20017;-37
2024/04/12 05:33:03;;;;;;;5.78;5.22;;;14.80;99.90;;;;;;5512348;26;20009;-36
2024/04/12 05:35:30;;;;;;;7.10;6.43;;;14.90;99.90;;;;;;5534019;25;20064;-36
2024/04/12 05:37:58;;;;;;;5.78;5.10;;;14.90;99.90;;;;;;5512570;25;20012;-33
2024/04/12 05:40:27;;;;;;;6.15;5.55;;;14.90;99.90;;;;;;5532996;25;19996;-34
2024/04/12 05:42:53;;;;;;;7.35;6.55;;;15.00;99.90;;;;;;5472659;26;20001;-33
2024/04/12 05:45:22;;;;;;;8.13;7.28;;;15.00;99.90;;;;;;5518553;25;20462;-36
2024/04/12 05:47:54;;;;;;;8.20;7.40;;;15.00;99.90;;;;;;5512061;25;20005;-36
2024/04/12 05:50:20;;;;;;;6.20;5.60;;;15.00;99.90;;;;;;5525815;25;20001;-35
2024/04/12 05:52:46;;;;;;;8.25;6.50;;;15.10;99.90;;;;;;5515670;25;19994;-35
2024/04/12 05:55:14;;;;;;;6.10;5.50;;;15.10;99.90;;;;;;5517357;25;20036;-34
2024/04/12 05:57:40;;;;;;;6.40;5.80;;;15.20;99.90;;;;;;5523030;25;20452;-37
2024/04/12 06:00:09;;;;;;;6.45;5.85;;;15.20;99.90;;;;;;5521710;25;20069;-33
2024/04/12 06:02:37;;;;;;;6.28;5.65;;;15.30;99.90;;;;;;5527041;25;20034;-34
2024/04/12 06:05:05;;;;;;;6.43;5.82;;;15.30;99.90;;;;;;5517433;25;20009;-36
2024/04/12 06:07:35;;;;;;;6.40;5.80;;;15.30;99.90;;;;;;5530925;25;20035;-38
2024/04/12 06:10:04;;;;;;;7.00;6.25;;;15.30;99.90;;;;;;5514282;25;19994;-36
2024/04/12 06:12:34;;;;;;;6.75;6.05;;;15.40;99.90;;;;;;5533831;25;20028;-35
2024/04/12 06:15:05;;;;;;;6.82;5.70;;;15.40;99.90;;;;;;5515667;25;20013;-37
2024/04/12 06:17:30;;;;;;;6.97;6.28;;;15.40;99.90;;;;;;5529970;25;20066;-32
2024/04/12 06:19:59;;;;;;;6.50;5.80;;;15.40;99.90;;;;;;5510941;25;20001;-36
2024/04/12 06:22:31;;;;;;;6.28;5.22;;;15.50;99.90;;;;;;5522656;25;20045;-35
2024/04/12 06:25:01;;;;;;;5.85;5.25;;;15.50;99.90;;;;;;5509360;25;19998;-34
2024/04/12 06:27:33;;;;;;;7.07;6.38;;;15.50;99.90;;;;;;5532464;25;20015;-35
2024/04/12 06:29:59;;;;;;;6.97;6.22;;;15.50;99.90;;;;;;5507383;26;19998;-35
2024/04/12 06:32:26;;;;;;;7.70;6.90;;;15.50;99.90;;;;;;5527632;25;20822;-35
2024/04/12 06:34:55;;;;;;;7.65;5.40;;;15.50;99.90;;;;;;5507365;26;20539;-36
2024/04/12 06:37:23;;;;;;;8.38;6.80;;;15.50;99.90;;;;;;5525694;25;19996;-36
2024/04/12 06:39:49;;;;;;;7.82;6.20;;;15.50;99.90;;;;;;5503646;26;20494;-37
2024/04/12 06:42:15;;;;;;;7.47;6.68;;;15.50;99.90;;;;;;5524559;25;19996;-36
2024/04/12 06:44:49;;;;;;;8.32;6.43;;;15.50;99.90;;;;;;5509159;25;19993;-38
2024/04/12 06:47:21;;;;;;;8.70;7.22;;;15.50;99.90;;;;;;5520884;25;20801;-36
2024/04/12 06:49:47;;;;;;;8.32;7.43;;;15.60;99.90;;;;;;5508711;25;20001;-35
2024/04/12 06:52:20;;;;;;;8.32;7.50;;;15.60;99.90;;;;;;5521420;25;20490;-37
2024/04/12 06:54:46;;;;;;;7.72;6.72;;;15.60;99.90;;;;;;5517049;25;20016;-37
2024/04/12 06:57:18;;;;;;;7.32;6.60;;;15.60;99.90;;;;;;5520859;25;20108;-36
2024/04/12 06:59:53;;;;;;;8.98;8.07;;;15.70;99.90;;;;;;5519976;25;20024;-37
2024/04/12 07:02:25;;;;;;;9.35;7.93;;;15.80;99.90;;;;;;5520947;25;20430;-36
2024/04/12 07:04:52;;;;;;;8.75;7.85;;;15.90;99.90;;;;;;5522713;25;19994;-37
2024/04/12 07:07:22;;;;;;;10.15;8.15;;;15.90;99.90;;;;;;5518820;25;19997;-35
2024/04/12 07:09:57;;;;;;;8.07;7.25;;;15.90;99.90;;;;;;5525700;25;20080;-37
2024/04/12 07:12:27;;;;;;;9.68;7.95;;;16.00;99.90;;;;;;5515640;25;20008;-37
2024/04/12 07:14:54;;;;;;;9.27;8.30;;;16.00;99.90;;;;;;5526891;25;19998;-34
2024/04/12 07:17:20;;;;;;;11.77;8.82;;;15.90;99.90;;;;;;5513063;25;20007;-37
2024/04/12 07:19:49;;;;;;;8.20;7.30;;;16.00;99.90;;;;;;5509988;25;20014;-36
2024/04/12 07:22:19;;;;;;;9.75;7.88;;;15.90;99.90;;;;;;5540434;25;20016;-37
2024/04/12 07:24:47;;;;;;;9.07;6.75;;;15.90;99.90;;;;;;5524940;25;19996;-35
2024/04/12 07:27:16;;;;;;;12.18;9.05;;;15.90;99.90;;;;;;5517937;25;19997;-39
2024/04/12 07:29:44;;;;;;;10.73;8.85;;;15.90;99.90;;;;;;5506076;25;20044;-36
2024/04/12 07:32:13;;;;;;;10.20;9.10;;;16.00;99.90;;;;;;5507742;26;20012;-34
2024/04/12 07:34:48;;;;;;;9.55;8.40;;;16.00;99.90;;;;;;5529900;25;20034;-37
2024/04/12 07:37:26;;;;;;;9.60;7.68;;;16.00;99.90;;;;;;5507965;26;20013;-38
2024/04/12 07:40:19;;;;;;;9.02;7.88;;;16.00;99.90;;;;;;5515986;25;19992;-37
2024/04/12 07:42:48;;;;;;;;;;;16.10;99.90;;;;;;5543998;25;20008;-36
2024/04/12 07:45:25;;;;;;;9.85;7.95;;;16.10;99.90;;;;;;5523154;25;19931;-37
2024/04/12 07:47:52;;;;;;;7.93;6.90;;;16.20;99.90;;;;;;5510776;25;19998;-37
2024/04/12 07:50:29;;;;;;;10.00;7.35;;;16.20;99.90;;;;;;5532241;25;20539;-35
2024/04/12 07:55:44;;;;;;;9.50;7.25;;;16.40;99.90;;;;;;5526357;25;20069;-37
2024/04/12 07:58:12;;;;;;;9.75;8.57;;;16.40;99.90;;;;;;5531323;25;20452;-39
2024/04/12 08:00:53;;;;;;;10.18;7.40;;;16.40;99.90;;;;;;5525024;25;20859;-38
2024/04/12 08:03:19;;;;;;;11.40;8.63;;;16.50;99.90;;;;;;5546084;25;19997;-37
2024/04/12 08:06:02;;;;;;;9.70;7.72;;;16.50;99.90;;;;;;5524006;25;20033;-38
2024/04/12 08:08:43;;;;;;;11.05;8.60;;;16.50;99.90;;;;;;5544598;25;20019;-32
2024/04/12 08:11:12;;;;;;;11.35;8.88;;;16.60;99.90;;;;;;5524466;25;19997;-37
2024/04/12 08:13:44;;;;;;;11.48;8.10;;;16.60;99.90;;;;;;5507446;25;20968;-37
2024/04/12 08:16:15;;;;;;;11.68;7.65;;;16.70;99.90;;;;;;5520597;25;20051;-36
2024/04/12 08:18:43;;;;;;;10.90;8.15;;;16.70;99.90;;;;;;5544302;25;20012;-36
2024/04/12 08:21:12;;;;;;;10.00;7.93;;;16.80;99.90;;;;;;5520803;25;20001;-37
2024/04/12 08:23:43;;;;;;;10.38;7.57;;;16.90;99.90;;;;;;5542527;25;20005;-37
2024/04/12 08:26:10;;;;;;;8.38;7.43;;;16.90;99.90;;;;;;5521306;25;20008;-38
2024/04/12 08:28:43;;;;;;;9.52;7.40;;;17.00;99.90;;;;;;5547051;25;19997;-37
2024/04/12 08:31:10;;;;;;;10.05;6.88;;;17.00;99.90;;;;;;5522154;25;20341;-36
2024/04/12 08:33:40;;;;;;;7.97;6.40;;;17.00;99.90;;;;;;5546152;25;20068;-37
2024/04/12 08:36:16;;;;;;;9.35;6.40;;;17.00;99.90;;;;;;5524702;25;20005;-37
2024/04/12 08:38:58;;;;;;;9.32;7.10;;;17.10;99.90;;;;;;5533384;25;20004;-35
2024/04/12 08:41:24;;;;;;;9.18;7.15;;;17.10;99.90;;;;;;5517004;25;19997;-35
2024/04/12 08:43:59;;;;;;;11.60;7.03;;;17.20;99.90;;;;;;5544620;25;20033;-37
2024/04/12 08:46:33;;;;;;;7.30;6.00;;;17.20;99.90;;;;;;5537168;25;20008;-37
2024/04/12 08:49:03;;;;;;;8.43;6.53;;;17.30;99.90;;;;;;5507491;25;20010;-38
2024/04/12 08:51:32;;;;;;;7.63;6.80;;;17.40;99.90;;;;;;5524734;25;20000;-36
2024/04/12 08:54:04;;;;;;;8.68;7.38;;;17.40;99.90;;;;;;5513922;25;20069;-36
2024/04/12 08:56:34;;;;;;;10.63;8.10;;;17.50;99.90;;;;;;5526299;25;20032;-36
2024/04/12 08:59:05;;;;;;;10.30;8.32;;;17.50;99.90;;;;;;5511598;25;20005;-35
2024/04/12 09:01:40;;;;;;;8.40;6.50;;;17.50;99.90;;;;;;5523178;25;20275;-37
2024/04/12 09:04:14;;;;;;;9.57;7.30;;;17.60;99.90;;;;;;5521102;25;20006;-35
2024/04/12 09:06:40;;;;;;;7.57;6.05;;;17.70;99.90;;;;;;5524103;25;20393;-37
2024/04/12 09:09:13;;;;;;;8.18;6.57;;;17.70;99.90;;;;;;5520581;25;20462;-35
2024/04/12 09:11:44;;;;;;;;;;;17.60;99.90;;;;;;5520176;25;20448;-37
2024/04/12 09:14:10;;;;;;;9.35;6.63;;;17.70;99.90;;;;;;5521772;25;19987;-36
2024/04/12 09:16:44;;;;;;;9.05;6.80;;;17.60;99.90;;;;;;5517415;25;20007;-37
2024/04/12 09:19:14;;;;;;;9.35;6.80;;;17.60;99.90;;;;;;5524925;25;19993;-33
2024/04/12 09:21:51;;;;;;;9.68;7.13;;;17.70;99.90;;;;;;5514584;25;19993;-38
2024/04/12 09:24:21;;;;;;;8.85;6.40;;;17.80;99.90;;;;;;5549769;25;20007;-34
2024/04/12 09:26:58;;;;;;;10.95;7.82;;;17.80;99.90;;;;;;5543894;25;19997;-37
2024/04/12 09:29:27;;;;;;;10.07;7.13;;;17.90;99.90;;;;;;5507334;25;19997;-35
2024/04/12 09:34:55;;;;;;;10.23;7.32;;;17.90;99.90;;;;;;5504592;25;20081;-38
2024/04/12 09:37:38;;;;;;;12.98;7.28;;;18.00;99.90;;;;;;5498428;25;19998;-36
2024/04/12 09:40:24;;;;;;;12.80;7.63;;;18.00;99.90;;;;;;5524813;25;19994;-35
2024/04/12 09:45:27;;;;;;;8.13;6.93;;;18.20;99.90;;;;;;5517778;25;20090;-37
2024/04/12 10:38:39;;;;;;;10.20;6.47;;;19.00;99.90;;;;;;5546226;25;20072;-38
2024/04/12 10:41:09;;;;;;;8.65;6.22;;;19.00;99.90;;;;;;5527657;25;20005;-37
2024/04/12 10:43:41;;;;;;;7.22;5.20;;;19.00;99.90;;;;;;5548036;25;20001;-37
2024/04/12 10:46:10;;;;;;;7.05;5.28;;;19.00;99.90;;;;;;5522758;25;20006;-37
2024/04/12 10:48:37;;;;;;;10.60;5.47;;;19.10;99.90;;;;;;5548523;25;20012;-34
2024/04/12 10:51:04;;;;;;;12.57;6.22;;;19.20;99.90;;;;;;5523784;25;19997;-36
2024/04/12 10:53:31;;;;;;;10.10;5.80;;;19.30;99.90;;;;;;5549102;25;19996;-33
2024/04/12 10:56:02;;;;;;;8.40;5.60;;;19.30;99.90;;;;;;5524669;25;20329;-35
2024/04/12 10:58:33;;;;;;;10.15;6.10;;;19.40;99.90;;;;;;5521701;25;20004;-34
2024/04/12 11:01:05;;;;;;;7.50;5.32;;;19.50;99.90;;;;;;5493734;25;20028;-31
2024/04/12 11:03:38;;;;;;;8.50;5.45;;;19.50;99.90;;;;;;5453839;25;19993;-37
2024/04/12 11:06:17;;;;;;;8.48;5.03;;;19.60;99.90;;;;;;5517335;25;20028;-38
2024/04/12 11:08:46;;;;;;;9.40;5.97;;;19.70;99.90;;;;;;5507088;25;20009;-38
2024/04/12 11:11:15;;;;;;;10.00;5.32;;;19.70;99.90;;;;;;5523988;25;20001;-38
2024/04/12 11:13:45;;;;;;;7.90;5.82;;;19.70;99.90;;;;;;5512666;25;19997;-37
2024/04/12 11:32:55;;;;;;;9.23;5.72;;;20.30;99.90;;;;;;5524720;25;20123;-37
2024/04/12 11:35:28;;;;;;;9.15;6.30;;;20.30;99.90;;;;;;5510659;25;20020;-37
2024/04/12 11:37:57;;;;;;;7.97;5.60;;;20.30;99.90;;;;;;5524384;25;20073;-38
2024/04/12 11:40:24;;;;;;;6.80;4.50;;;20.20;99.90;;;;;;5546740;25;19993;-33
2024/04/12 11:42:56;;;;;;;8.45;4.45;;;20.30;99.90;;;;;;5523014;25;20397;-37
2024/04/12 11:45:25;;;;;;;8.00;4.35;;;20.30;99.90;;;;;;5547023;25;20004;-36
2024/04/12 11:47:51;;;;;;;7.85;4.45;;;20.30;99.90;;;;;;5522057;25;20005;-35
2024/04/12 11:50:17;;;;;;;5.57;3.97;;;20.30;99.90;;;;;;5546686;25;19997;-37
2024/04/12 11:52:43;;;;;;;6.15;4.40;;;20.30;99.90;;;;;;5524771;25;20001;-37
2024/04/12 11:55:12;;;;;;;6.35;4.15;;;20.30;99.90;;;;;;5543475;25;20033;-37
2024/04/12 11:57:37;;;;;;;7.90;4.38;;;20.30;99.90;;;;;;5537519;25;20004;-38
2024/04/12 12:00:09;;;;;;;8.88;5.40;;;20.20;99.90;;;;;;5545934;25;20519;-35
2024/04/12 12:02:42;;;;;;;8.07;5.05;;;20.20;99.90;;;;;;5536091;25;20000;-36
2024/04/12 12:05:16;;;;;;;7.05;4.72;;;20.20;99.90;;;;;;5517449;25;19994;-38
2024/04/12 12:07:44;;;;;;;7.78;4.55;;;20.10;99.90;;;;;;5521499;25;19997;-35
2024/04/12 12:10:11;;;;;;;5.68;3.70;;;20.10;99.90;;;;;;5518967;25;20001;-38
2024/04/12 12:12:37;;;;;;;6.32;3.78;;;20.10;99.90;;;;;;5517701;25;19997;-37
2024/04/12 12:15:06;;;;;;;5.75;4.43;;;20.10;99.90;;;;;;5522184;25;20074;-34
2024/04/12 12:17:32;;;;;;;7.90;4.70;;;20.20;99.90;;;;;;5513205;25;19993;-36
2024/04/12 12:20:01;;;;;;;5.57;4.00;;;20.20;99.90;;;;;;5527982;25;20481;-36
2024/04/12 12:22:30;;;;;;;7.00;4.43;;;20.20;99.90;;;;;;5510663;25;20336;-38
2024/04/12 12:24:58;;;;;;;5.30;3.92;;;20.20;99.90;;;;;;5530479;25;20037;-33
2024/04/12 12:27:23;;;;;;;5.70;3.65;;;20.20;99.90;;;;;;5513603;25;20004;-37
2024/04/12 12:29:53;;;;;;;5.13;3.30;;;20.10;99.90;;;;;;5532261;25;20077;-37
2024/04/12 12:32:25;;;;;;;4.35;3.42;;;20.20;99.90;;;;;;5512636;25;20001;-36
2024/04/12 12:34:51;;;;;;;7.18;3.55;;;20.30;99.90;;;;;;5534237;25;19998;-34
2024/04/12 12:37:17;;;;;;;7.60;4.32;;;20.30;99.90;;;;;;5512229;25;19997;-37
2024/04/12 12:39:43;;;;;;;5.18;3.15;;;20.30;99.90;;;;;;5535104;25;20696;-38
2024/04/12 12:42:09;;;;;;;7.25;3.70;;;20.30;99.90;;;;;;5512234;25;20040;-35
2024/04/12 12:44:36;;;;;;;4.85;3.17;;;20.40;99.90;;;;;;5534970;25;19992;-34
2024/04/12 12:47:08;;;;;;;5.07;2.95;;;20.30;99.90;;;;;;5474528;26;19998;-34
2024/04/12 12:49:40;;;;;;;4.57;2.40;;;20.20;99.90;;;;;;5521559;25;20008;-35
2024/04/12 12:52:11;;;;;;;;;;;20.20;99.90;;;;;;5510789;25;20009;-36
2024/04/12 12:54:37;;;;;;;4.38;2.50;;;20.20;99.90;;;;;;5527537;25;19923;-34
2024/04/12 12:57:06;;;;;;;3.17;2.40;;;20.30;99.90;;;;;;5513583;25;19990;-37
2024/04/12 12:59:34;;;;;;;4.55;2.72;;;20.30;99.90;;;;;;5531943;25;20001;-37
2024/04/12 13:02:00;;;;;;;6.95;3.00;;;20.30;99.90;;;;;;5539897;25;19997;-34
2024/04/12 13:04:26;;;;;;;5.70;2.85;;;20.30;99.90;;;;;;5536230;25;20131;-34
2024/04/12 13:06:53;;;;;;;3.90;2.97;;;20.30;99.90;;;;;;5536336;25;20001;-36
2024/04/12 13:09:18;;;;;;;3.88;2.70;;;20.30;99.90;;;;;;5544440;25;19997;-34
2024/04/12 13:11:44;;;;;;;4.05;2.30;;;20.30;99.90;;;;;;5531127;25;20440;-39
2024/04/12 13:14:10;;;;;;;3.42;2.33;;;20.30;99.90;;;;;;5546352;25;20096;-37
2024/04/12 13:16:41;;;;;;;3.45;1.85;;;20.40;99.90;;;;;;5528207;25;20458;-38
2024/04/12 13:19:15;;;;;;;2.65;1.80;;;20.50;99.90;;;;;;5545991;25;20510;-38
2024/04/12 13:21:41;;;;;;;2.97;1.92;;;20.60;99.90;;;;;;5527915;25;20520;-36
2024/04/12 13:24:07;;;;;;;2.55;1.70;;;20.70;99.90;;;;;;5547428;25;20005;-37
2024/04/12 13:26:33;;;;;;;2.13;1.58;;;20.70;99.90;;;;;;5525496;25;20007;-34
2024/04/12 13:28:59;;;;;;;2.90;1.98;;;20.80;99.90;;;;;;5548834;25;20008;-38
2024/04/12 13:31:29;;;;;;;2.30;1.30;;;20.80;99.90;;;;;;5525888;25;20004;-33
2024/04/12 13:33:55;;;;;;;2.95;1.50;;;20.90;99.90;;;;;;5548866;25;19997;-38
2024/04/12 13:36:21;;;;;;;2.20;1.50;;;21.00;99.90;;;;;;5524636;25;19997;-39
2024/04/12 13:38:48;;;;;;;2.33;1.27;;;20.90;99.90;;;;;;5547799;25;20004;-38
2024/04/12 13:41:18;;;;;;;1.50;1.40;;;21.00;99.90;;;;;;5529861;25;20005;-36
2024/04/12 13:43:49;;;;;;;2.22;1.58;;;21.00;99.90;;;;;;5546054;25;20519;-34
2024/04/12 13:51:49;;;;;;;4.85;1.52;;;21.00;99.90;;;;;;5524209;25;20082;-37
2024/04/12 13:54:24;;;;;;;1.75;1.42;;;21.00;99.90;;;;;;5544360;25;20637;-38
2024/04/12 13:56:58;;;;;;;3.33;2.15;;;21.00;99.90;;;;;;5525418;25;19997;-40
2024/04/12 13:59:24;;;;;;;2.40;1.58;;;21.00;99.90;;;;;;5511916;25;19994;-34
2024/04/12 14:01:49;;;;;;;2.72;1.77;;;21.00;99.90;;;;;;5526592;25;19997;-36
2024/04/12 14:04:18;;;;;;;3.55;2.00;;;21.00;99.90;;;;;;5517805;25;20035;-37
2024/04/12 14:06:48;;;;;;;4.20;2.42;;;21.10;99.90;;;;;;5524820;25;20894;-37
2024/04/12 14:09:21;;;;;;;3.53;2.25;;;21.20;99.90;;;;;;5520528;25;20213;-37
2024/04/12 14:11:50;;;;;;;3.15;2.08;;;21.20;99.90;;;;;;5522797;25;19997;-39
2024/04/12 14:14:20;;;;;;;5.07;2.97;;;21.30;99.90;;;;;;5520794;25;19993;-36
2024/04/12 14:16:47;;;;;;;3.47;3.00;;;21.40;99.90;;;;;;5519535;25;20012;-36
2024/04/12 14:19:18;;;;;;;4.63;3.13;;;21.50;99.90;;;;;;5524718;25;20006;-37